Time;durP1;ratioP1;P1;durP2;ratioP2;P2;SDS_P1;SDS_P2;PMS_P1;PMS_P2;Temp;Humidity;BMP_temperature;BMP_pressure;BME280_temperature;BME280_humidity;BME280_pressure;Samples;Min_cycle;Max_cycle;Signal;HPM_P1;HPM_P2
2021/07/03 00:02:02;;;;;;;3.10;2.80;;;;;;;21.68;55.43;98311.09;5074882;28;20041;-83
2021/07/03 00:04:28;;;;;;;5.18;2.90;;;;;;;21.67;55.03;98314.03;5073665;28;20067;-84
2021/07/03 00:06:54;;;;;;;3.17;2.88;;;;;;;21.65;55.13;98316.94;5075992;28;20571;-83
2021/07/03 00:09:19;;;;;;;4.40;3.05;;;;;;;21.70;55.13;98327.16;5075114;28;20047;-78
2021/07/03 00:11:46;;;;;;;3.08;2.88;;;;;;;21.67;55.03;98324.91;5074389;28;20202;-80
2021/07/03 00:14:12;;;;;;;5.38;2.97;;;;;;;21.64;55.09;98330.78;5056889;28;20052;-82
2021/07/03 00:16:38;;;;;;;13.38;3.17;;;;;;;21.72;54.92;98323.19;5074365;28;20515;-85
2021/07/03 00:19:04;;;;;;;5.15;2.88;;;;;;;21.79;54.69;98328.59;5075086;28;20094;-82
2021/07/03 00:21:30;;;;;;;7.88;2.80;;;;;;;21.81;54.61;98329.19;5074511;28;20395;-83
2021/07/03 00:23:56;;;;;;;3.88;2.90;;;;;;;21.82;54.46;98329.00;5074019;28;20040;-81
2021/07/03 00:26:22;;;;;;;3.60;2.70;;;;;;;21.90;54.62;98338.75;5074369;28;20080;-85
2021/07/03 00:28:48;;;;;;;9.32;3.10;;;;;;;21.91;54.44;98340.44;5074572;28;20480;-84
2021/07/03 00:31:15;;;;;;;3.70;3.00;;;;;;;21.92;54.44;98346.69;5056598;28;20051;-84
2021/07/03 00:33:40;;;;;;;3.28;2.53;;;;;;;21.83;54.47;98336.09;5073388;28;20139;-84
2021/07/03 00:36:06;;;;;;;6.13;3.20;;;;;;;21.88;54.54;98343.59;5057414;28;20044;-85
2021/07/03 00:38:32;;;;;;;3.55;2.95;;;;;;;21.83;54.51;98344.25;5072882;28;20094;-85
2021/07/03 00:40:58;;;;;;;9.40;3.20;;;;;;;21.80;54.56;98346.56;5055979;28;20079;-85
2021/07/03 00:43:24;;;;;;;9.38;3.40;;;;;;;21.83;54.80;98351.56;5056163;28;20497;-85
2021/07/03 00:45:51;;;;;;;4.80;2.90;;;;;;;21.82;54.60;98352.63;5072660;28;20052;-86
2021/07/03 00:48:17;;;;;;;3.38;3.08;;;;;;;21.79;54.90;98345.75;5057128;28;20100;-86
2021/07/03 00:50:43;;;;;;;5.70;2.85;;;;;;;21.81;54.95;98340.94;5073761;28;20048;-81
2021/07/03 00:53:11;;;;;;;;;;;;;;;21.82;54.84;98350.75;5072890;28;20131;-86
2021/07/03 00:55:37;;;;;;;2.83;2.60;;;;;;;21.78;55.15;98343.25;5072884;28;19955;-87
2021/07/03 00:58:04;;;;;;;5.20;3.05;;;;;;;21.77;54.97;98352.44;5056321;28;20044;-85
2021/07/03 01:00:34;;;;;;;9.43;3.13;;;;;;;21.78;55.09;98354.13;5072783;28;20044;-88
2021/07/03 01:03:02;;;;;;;5.50;3.50;;;;;;;21.77;55.08;98356.00;5073413;28;20072;-86
2021/07/03 01:05:28;;;;;;;4.30;2.90;;;;;;;21.79;55.09;98355.78;5074334;28;20040;-86
2021/07/03 01:07:54;;;;;;;4.90;2.95;;;;;;;21.82;55.02;98349.91;5073870;28;20083;-86
2021/07/03 01:10:24;;;;;;;7.25;3.58;;;;;;;21.76;54.88;98358.94;5056680;28;20041;-84
2021/07/03 01:12:59;;;;;;;3.58;3.10;;;;;;;21.80;54.91;98368.34;5057222;28;20048;-85
2021/07/03 01:15:27;;;;;;;4.55;2.90;;;;;;;21.74;54.91;98359.19;5073411;28;20131;-85
2021/07/03 01:17:53;;;;;;;3.45;3.15;;;;;;;21.73;55.05;98368.38;5071808;28;20530;-85
2021/07/03 01:20:19;;;;;;;5.25;3.22;;;;;;;21.82;55.03;98374.41;5071807;28;20048;-83
2021/07/03 01:22:46;;;;;;;4.35;3.42;;;;;;;21.80;54.94;98381.94;5072723;28;20048;-82
2021/07/03 01:25:12;;;;;;;8.48;3.13;;;;;;;21.71;55.04;98373.22;5073717;28;20050;-83
2021/07/03 01:27:42;;;;;;;7.07;3.35;;;;;;;21.69;55.45;98374.47;5072170;28;20048;-84
2021/07/03 01:30:09;;;;;;;5.35;2.88;;;;;;;21.73;55.36;98384.69;5073820;28;20071;-84
2021/07/03 01:32:36;;;;;;;5.77;3.40;;;;;;;21.73;55.40;98378.41;5057806;28;20051;-88
2021/07/03 01:35:03;;;;;;;6.65;3.17;;;;;;;21.73;55.55;98383.84;5075559;28;20052;-84
2021/07/03 01:37:32;;;;;;;7.63;3.35;;;;;;;21.77;55.36;98385.09;5056746;28;20048;-85
2021/07/03 01:40:00;;;;;;;8.05;3.13;;;;;;;21.79;55.60;98383.81;5073984;28;20040;-86
2021/07/03 01:42:27;;;;;;;4.53;4.03;;;;;;;21.82;55.62;98385.28;5072584;28;20048;-83
2021/07/03 01:44:55;;;;;;;3.53;3.22;;;;;;;21.83;55.31;98386.94;5055702;28;20051;-86
2021/07/03 01:47:22;;;;;;;6.20;3.28;;;;;;;21.88;55.39;98389.84;5080457;28;20064;-84
2021/07/03 01:49:48;;;;;;;3.85;3.40;;;;;;;21.95;55.31;98398.78;5074317;28;20072;-86
2021/07/03 01:52:19;;;;;;;8.18;3.40;;;;;;;22.03;55.22;98395.81;5072786;28;20048;-85
2021/07/03 01:54:49;;;;;;;5.85;3.33;;;;;;;22.03;54.89;98394.97;5075703;28;20124;-87
2021/07/03 01:57:15;;;;;;;5.32;3.28;;;;;;;22.07;54.80;98391.59;5076728;28;20044;-87
2021/07/03 01:59:56;;;;;;;3.80;3.08;;;;;;;22.23;54.99;98395.72;5041334;28;20094;-85
2021/07/03 02:02:24;;;;;;;6.38;3.50;;;;;;;22.35;54.56;98395.84;5072504;28;20126;-84
2021/07/03 02:04:50;;;;;;;12.82;4.10;;;;;;;22.41;54.55;98405.81;5071470;28;20052;-83
2021/07/03 02:07:17;;;;;;;7.50;3.30;;;;;;;22.46;54.27;98406.00;5055023;28;20040;-85
2021/07/03 02:09:43;;;;;;;10.35;3.70;;;;;;;22.49;54.14;98405.56;5054845;28;20127;-81
2021/07/03 02:12:10;;;;;;;7.07;3.30;;;;;;;22.44;54.42;98401.81;5071636;28;20040;-82
2021/07/03 02:14:55;;;;;;;6.25;3.53;;;;;;;22.50;54.28;98399.06;5071432;28;20040;-83
2021/07/03 02:17:30;;;;;;;7.63;3.65;;;;;;;22.49;54.40;98400.13;5071345;28;20072;-84
2021/07/03 02:20:00;;;;;;;7.47;4.40;;;;;;;22.47;54.76;98402.22;5071678;28;20738;-84
2021/07/03 02:22:38;;;;;;;9.32;4.10;;;;;;;22.40;55.08;98404.16;5071500;28;20093;-83
2021/07/03 02:25:05;;;;;;;7.95;3.60;;;;;;;22.54;55.16;98402.16;5071616;28;20202;-86
2021/07/03 02:27:33;;;;;;;4.93;3.50;;;;;;;22.61;55.54;98408.41;5055045;28;20044;-85
2021/07/03 02:30:08;;;;;;;12.23;3.28;;;;;;;22.67;54.74;98406.66;5074287;28;20495;-84
2021/07/03 02:32:34;;;;;;;6.60;3.25;;;;;;;22.83;54.55;98417.00;5075726;28;20051;-82
2021/07/03 02:35:01;;;;;;;6.20;3.08;;;;;;;22.90;54.65;98411.47;5059170;28;20131;-83
2021/07/03 02:37:27;;;;;;;7.40;3.05;;;;;;;22.95;54.45;98398.88;5060520;28;20135;-84
2021/07/03 02:39:54;;;;;;;6.35;2.97;;;;;;;23.06;54.22;98404.66;5076538;28;20515;-87
2021/07/03 02:42:34;;;;;;;9.75;3.60;;;;;;;23.16;54.09;98404.94;5076489;28;20105;-85
2021/07/03 02:45:00;;;;;;;7.63;3.70;;;;;;;23.17;54.36;98406.59;5058956;28;20043;-84
2021/07/03 02:47:27;;;;;;;6.13;3.20;;;;;;;23.30;54.08;98406.47;5077484;28;20056;-85
2021/07/03 02:49:53;;;;;;;7.35;3.17;;;;;;;23.43;53.73;98408.19;5075686;28;20040;-86
2021/07/03 02:52:19;;;;;;;9.90;3.38;;;;;;;23.52;53.58;98415.84;5075072;28;20062;-81
2021/07/03 02:54:48;;;;;;;3.50;2.85;;;;;;;23.60;53.59;98411.97;5058495;28;20499;-86
2021/07/03 02:57:15;;;;;;;7.45;3.30;;;;;;;23.70;53.42;98403.28;5074780;28;20067;-82
2021/07/03 02:59:41;;;;;;;10.93;3.20;;;;;;;23.75;53.17;98419.78;5058461;28;20047;-79
2021/07/03 03:02:09;;;;;;;4.63;3.50;;;;;;;23.81;53.48;98418.88;5074746;28;20052;-87
2021/07/03 03:04:37;;;;;;;5.65;3.13;;;;;;;23.80;53.60;98414.44;5058629;28;20044;-86
2021/07/03 03:07:05;;;;;;;5.40;3.70;;;;;;;23.79;53.82;98409.25;5075734;28;20060;-84
2021/07/03 03:09:31;;;;;;;6.20;3.25;;;;;;;23.93;53.61;98411.56;5074455;28;20040;-86
2021/07/03 03:11:59;;;;;;;14.88;3.58;;;;;;;24.08;53.39;98416.59;5075454;28;20052;-82
2021/07/03 03:14:26;;;;;;;14.68;3.58;;;;;;;24.18;53.16;98413.28;5074253;28;20051;-78
2021/07/03 03:16:54;;;;;;;10.27;3.27;;;;;;;24.27;53.03;98422.81;5074546;28;20097;-84
2021/07/03 03:19:20;;;;;;;9.60;3.20;;;;;;;24.20;53.39;98422.09;5074240;28;20287;-80
2021/07/03 03:21:46;;;;;;;7.85;3.28;;;;;;;24.23;53.46;98419.72;5074048;28;20044;-82
2021/07/03 03:24:12;;;;;;;6.18;3.10;;;;;;;24.23;53.64;98424.34;5073952;28;20044;-77
2021/07/03 03:26:38;;;;;;;9.38;3.40;;;;;;;24.32;53.59;98417.47;5075268;28;20045;-77
2021/07/03 03:29:07;;;;;;;6.05;3.30;;;;;;;24.46;53.07;98421.69;5057182;28;20051;-79
2021/07/03 03:31:34;;;;;;;4.20;3.00;;;;;;;24.58;53.10;98423.63;5074138;28;20075;-79
2021/07/03 03:34:03;;;;;;;6.05;2.83;;;;;;;24.63;52.84;98424.56;5075151;28;20059;-77
2021/07/03 03:36:29;;;;;;;11.90;3.10;;;;;;;24.74;52.66;98425.66;5073869;28;20079;-79
2021/07/03 03:38:55;;;;;;;7.30;3.20;;;;;;;24.84;52.41;98423.16;5073650;28;20132;-81
2021/07/03 03:41:22;;;;;;;5.75;3.10;;;;;;;24.85;52.51;98419.34;5084697;28;20044;-82
2021/07/03 03:43:49;;;;;;;4.80;3.00;;;;;;;24.83;52.23;98421.50;5065375;28;20083;-80
2021/07/03 03:46:16;;;;;;;5.53;3.13;;;;;;;24.97;51.68;98419.34;5082066;28;20044;-82
2021/07/03 03:48:46;;;;;;;4.63;3.00;;;;;;;25.19;51.05;98411.41;5080159;28;20044;-81
2021/07/03 03:51:12;;;;;;;4.15;3.00;;;;;;;25.32;50.45;98413.88;5057159;28;20506;-80
2021/07/03 03:53:40;;;;;;;3.58;3.28;;;;;;;25.49;50.43;98418.59;5073866;28;20047;-81
2021/07/03 03:56:07;;;;;;;5.90;3.25;;;;;;;25.46;50.25;98416.34;5076954;28;20045;-83
2021/07/03 03:58:36;;;;;;;6.78;2.97;;;;;;;25.29;50.50;98419.84;5075409;28;20045;-83
2021/07/03 04:01:03;;;;;;;4.30;3.10;;;;;;;25.35;50.55;98413.41;5057444;28;20076;-82
2021/07/03 04:03:29;;;;;;;3.55;3.05;;;;;;;25.57;50.26;98410.84;5058124;28;20094;-83
2021/07/03 04:05:57;;;;;;;12.50;3.17;;;;;;;25.72;49.75;98421.25;5057285;28;20048;-81
2021/07/03 04:08:23;;;;;;;6.65;2.95;;;;;;;25.63;49.63;98420.00;5073189;28;20633;-83
2021/07/03 04:10:50;;;;;;;3.45;3.15;;;;;;;25.70;49.56;98428.91;5073305;28;20119;-84
2021/07/03 04:13:16;;;;;;;14.23;3.47;;;;;;;25.66;49.79;98428.56;5057010;28;20123;-86
2021/07/03 04:15:42;;;;;;;6.85;3.10;;;;;;;25.66;49.85;98422.25;5075688;28;20040;-83
2021/07/03 04:18:08;;;;;;;10.90;2.92;;;;;;;25.78;49.43;98424.94;5073172;28;20094;-82
2021/07/03 04:20:34;;;;;;;14.18;2.97;;;;;;;25.85;48.72;98429.25;5072951;28;20098;-84
2021/07/03 04:23:00;;;;;;;5.35;2.80;;;;;;;25.95;48.54;98411.34;5073151;28;20040;-82
2021/07/03 04:25:26;;;;;;;4.03;2.45;;;;;;;25.86;48.07;98402.69;5073207;28;20196;-85
2021/07/03 04:27:51;;;;;;;3.33;2.90;;;;;;;25.99;48.13;98405.16;5073282;28;20040;-82
2021/07/03 04:30:18;;;;;;;10.40;3.00;;;;;;;26.02;48.30;98401.06;5073604;28;20048;-81
2021/07/03 04:32:46;;;;;;;5.50;3.00;;;;;;;26.28;48.06;98403.19;5072721;28;20503;-82
2021/07/03 04:35:12;;;;;;;3.65;2.80;;;;;;;26.30;47.42;98406.53;5055888;28;20040;-82
2021/07/03 04:37:39;;;;;;;4.03;2.63;;;;;;;26.36;47.27;98410.16;5056749;28;20040;-82
2021/07/03 04:40:06;;;;;;;5.05;2.90;;;;;;;26.34;47.40;98404.94;5073697;28;20453;-82
2021/07/03 04:42:32;;;;;;;2.90;2.50;;;;;;;26.23;47.79;98402.28;5073681;28;20044;-82
2021/07/03 04:44:59;;;;;;;3.60;2.90;;;;;;;26.34;47.65;98388.50;5073365;28;20075;-80
2021/07/03 04:47:25;;;;;;;11.15;2.80;;;;;;;26.46;46.73;98398.59;5073669;28;20088;-81
2021/07/03 04:49:51;;;;;;;4.30;2.58;;;;;;;26.38;46.87;98406.09;5073595;28;20048;-83
2021/07/03 04:52:18;;;;;;;4.75;2.40;;;;;;;26.35;47.03;98401.13;5083211;28;20091;-84
2021/07/03 04:54:46;;;;;;;5.93;2.70;;;;;;;26.53;47.36;98400.09;5086399;28;20040;-80
2021/07/03 04:57:13;;;;;;;4.05;2.47;;;;;;;26.83;46.49;98397.00;5073264;28;20040;-82
2021/07/03 04:59:40;;;;;;;7.65;2.53;;;;;;;26.69;46.41;98395.66;5071859;28;20052;-80
2021/07/03 05:02:08;;;;;;;6.78;2.63;;;;;;;26.88;46.32;98399.81;5072998;28;20534;-82
2021/07/03 05:04:35;;;;;;;3.25;2.13;;;;;;;26.79;44.26;98395.84;5071846;28;20044;-83
2021/07/03 05:07:01;;;;;;;4.45;2.05;;;;;;;26.75;44.25;98394.69;5073249;28;20052;-81
2021/07/03 05:09:27;;;;;;;2.70;2.30;;;;;;;26.73;43.78;98399.56;5072061;28;20127;-82
2021/07/03 05:11:53;;;;;;;6.40;2.25;;;;;;;26.85;44.07;98394.84;5071834;28;20071;-82
2021/07/03 05:14:19;;;;;;;3.33;1.92;;;;;;;26.85;44.34;98397.59;5055115;28;20041;-82
2021/07/03 05:16:45;;;;;;;3.42;2.10;;;;;;;26.72;44.84;98406.16;5072955;28;20051;-83
2021/07/03 05:19:11;;;;;;;4.53;2.35;;;;;;;26.88;44.77;98398.97;5054910;28;20147;-80
2021/07/03 05:21:37;;;;;;;2.25;2.15;;;;;;;26.81;44.85;98403.81;5071942;28;20043;-81
2021/07/03 05:24:03;;;;;;;3.90;2.10;;;;;;;27.04;44.22;98405.50;5071350;28;20518;-81
2021/07/03 05:26:29;;;;;;;5.90;2.50;;;;;;;27.18;44.11;98406.84;5073099;28;20052;-80
2021/07/03 05:28:55;;;;;;;3.90;2.25;;;;;;;27.33;43.47;98407.06;5073270;28;20526;-82
2021/07/03 05:31:20;;;;;;;6.43;2.45;;;;;;;27.43;43.15;98402.78;5072927;28;20036;-84
2021/07/03 05:33:46;;;;;;;5.00;2.00;;;;;;;27.70;42.53;98403.66;5072940;28;20487;-83
2021/07/03 05:36:12;;;;;;;7.72;2.10;;;;;;;27.64;42.53;98406.59;5072560;28;20055;-84
2021/07/03 05:38:42;;;;;;;1.95;1.70;;;;;;;27.64;42.21;98407.44;5070905;28;20048;-82
2021/07/03 05:41:08;;;;;;;3.45;1.75;;;;;;;27.90;41.40;98405.00;5055559;28;20495;-81
2021/07/03 05:43:35;;;;;;;1.80;1.70;;;;;;;27.91;41.72;98403.91;5072817;28;20553;-82
2021/07/03 05:46:02;;;;;;;3.65;2.25;;;;;;;27.82;42.02;98404.38;5071769;28;20411;-83
2021/07/03 05:48:28;;;;;;;3.40;1.95;;;;;;;27.81;41.64;98397.25;5072825;28;20044;-82
2021/07/03 05:50:53;;;;;;;3.03;1.88;;;;;;;27.84;41.35;98399.47;5038201;28;20051;-82
2021/07/03 05:53:19;;;;;;;3.30;1.90;;;;;;;27.96;41.53;98393.84;5072470;28;20052;-81
2021/07/03 05:55:45;;;;;;;2.85;2.10;;;;;;;27.99;41.60;98393.31;5071235;28;20194;-81
2021/07/03 05:58:11;;;;;;;6.15;2.30;;;;;;;28.22;40.69;98396.84;5072444;28;20123;-80
2021/07/03 06:00:37;;;;;;;3.22;2.00;;;;;;;28.08;40.91;98401.91;5072836;28;20117;-79
2021/07/03 06:03:03;;;;;;;6.93;2.00;;;;;;;27.99;40.99;98392.50;5074922;28;20546;-81
2021/07/03 06:05:29;;;;;;;9.70;2.00;;;;;;;28.15;40.67;98380.56;5076949;28;20405;-79
2021/07/03 06:07:55;;;;;;;3.42;1.92;;;;;;;28.50;40.42;98381.97;5076572;28;20075;-81
2021/07/03 06:10:21;;;;;;;21.38;2.08;;;;;;;28.66;40.01;98385.69;5075509;28;20075;-81
2021/07/03 06:12:47;;;;;;;5.63;2.00;;;;;;;28.58;40.16;98395.25;5075441;28;20123;-81
2021/07/03 06:15:13;;;;;;;7.45;2.00;;;;;;;28.47;40.28;98394.34;5076550;28;20152;-80
2021/07/03 06:17:39;;;;;;;3.22;1.90;;;;;;;28.61;40.50;98380.97;5076449;28;20070;-80
2021/07/03 06:20:06;;;;;;;3.08;1.83;;;;;;;28.73;40.08;98392.59;5076298;28;20090;-80
2021/07/03 06:22:32;;;;;;;3.38;2.00;;;;;;;28.63;39.83;98381.56;5075683;28;20040;-82
2021/07/03 06:24:58;;;;;;;2.92;1.92;;;;;;;28.57;39.85;98377.09;5076316;28;20499;-82
2021/07/03 06:27:25;;;;;;;8.50;2.33;;;;;;;28.65;39.92;98390.34;5075093;28;20032;-81
2021/07/03 06:29:51;;;;;;;12.07;2.10;;;;;;;28.85;38.99;98388.84;5041690;28;20043;-80
2021/07/03 06:32:17;;;;;;;5.00;2.00;;;;;;;29.10;38.50;98386.28;5075227;28;20044;-82
2021/07/03 06:34:43;;;;;;;4.07;1.55;;;;;;;29.25;37.88;98389.13;5074838;28;20052;-81
2021/07/03 06:37:09;;;;;;;2.22;1.70;;;;;;;29.26;38.07;98388.03;5076119;28;20036;-81
2021/07/03 06:39:35;;;;;;;3.30;2.00;;;;;;;29.18;38.07;98388.53;5074630;28;20051;-82
2021/07/03 06:42:00;;;;;;;3.40;1.70;;;;;;;28.89;38.52;98401.00;5076159;28;20044;-80
2021/07/03 06:44:27;;;;;;;4.00;1.67;;;;;;;28.85;38.24;98386.94;5075862;28;20044;-82
2021/07/03 06:46:52;;;;;;;4.45;1.90;;;;;;;28.82;38.55;98372.88;5075931;28;20105;-82
2021/07/03 06:49:18;;;;;;;2.97;1.60;;;;;;;28.76;38.36;98383.84;5074586;28;20471;-80
2021/07/03 06:51:44;;;;;;;2.92;1.95;;;;;;;28.91;38.22;98382.28;5075931;28;20577;-80
2021/07/03 06:54:10;;;;;;;4.45;1.60;;;;;;;29.05;37.96;98375.25;5075775;28;20049;-81
2021/07/03 06:56:36;;;;;;;6.53;1.90;;;;;;;28.92;38.35;98379.25;5057722;28;20048;-82
2021/07/03 06:59:03;;;;;;;3.42;1.98;;;;;;;28.97;38.39;98375.72;5024515;28;20119;-82
2021/07/03 07:01:29;;;;;;;5.68;2.10;;;;;;;29.31;38.00;98375.41;5074893;28;20048;-81
2021/07/03 07:03:55;;;;;;;7.53;2.10;;;;;;;29.50;37.50;98366.38;5075661;28;20047;-81
2021/07/03 07:06:20;;;;;;;2.70;1.60;;;;;;;29.85;36.90;98369.56;5075128;28;20044;-82
2021/07/03 07:08:46;;;;;;;5.57;1.77;;;;;;;30.20;36.41;98366.03;5075212;28;20123;-81
2021/07/03 07:11:12;;;;;;;4.25;1.75;;;;;;;30.29;36.18;98371.88;5075410;28;20503;-83
2021/07/03 07:13:38;;;;;;;1.90;1.80;;;;;;;30.16;36.24;98382.31;5074055;28;20048;-82
2021/07/03 07:16:04;;;;;;;2.33;1.63;;;;;;;30.11;35.94;98375.94;5073345;28;20135;-80
2021/07/03 07:18:30;;;;;;;3.80;1.55;;;;;;;30.13;35.89;98366.31;5074982;28;20062;-82
2021/07/03 07:20:56;;;;;;;2.70;1.70;;;;;;;30.40;35.14;98368.00;5075074;28;20052;-82
2021/07/03 07:23:22;;;;;;;8.65;1.50;;;;;;;30.43;34.67;98364.72;5075190;28;20056;-82
2021/07/03 07:25:50;;;;;;;2.88;1.50;;;;;;;30.78;34.69;98361.09;5057525;28;20084;-81
2021/07/03 07:28:17;;;;;;;1.55;1.40;;;;;;;30.92;33.90;98367.72;5073745;28;20056;-82
2021/07/03 07:30:42;;;;;;;2.70;1.30;;;;;;;30.84;34.67;98365.53;5075362;28;20052;-81
2021/07/03 07:33:08;;;;;;;5.20;2.05;;;;;;;30.66;34.83;98357.78;5073669;28;20045;-82
2021/07/03 07:35:34;;;;;;;3.45;1.45;;;;;;;30.13;35.06;98365.47;5057232;28;20040;-81
2021/07/03 07:38:01;;;;;;;2.85;1.33;;;;;;;29.98;34.91;98358.03;5056983;28;20098;-81
2021/07/03 07:40:27;;;;;;;10.27;1.90;;;;;;;29.72;35.64;98365.41;5073667;28;20135;-83
2021/07/03 07:42:53;;;;;;;4.90;1.65;;;;;;;30.35;35.15;98356.97;5074156;28;20052;-82
2021/07/03 07:45:19;;;;;;;4.13;1.45;;;;;;;30.73;34.41;98353.66;5073596;28;20072;-81
2021/07/03 07:47:46;;;;;;;2.60;1.95;;;;;;;30.72;34.22;98346.44;5074995;28;20060;-82
2021/07/03 07:50:12;;;;;;;3.67;1.95;;;;;;;30.73;34.17;98344.53;5056806;28;20032;-82
2021/07/03 07:52:38;;;;;;;1.90;1.67;;;;;;;31.02;34.08;98355.81;5073393;28;20135;-81
2021/07/03 07:55:04;;;;;;;1.70;1.60;;;;;;;31.23;33.75;98347.47;5073499;28;20048;-79
2021/07/03 07:57:30;;;;;;;7.18;2.05;;;;;;;31.33;33.43;98350.22;5075437;28;20044;-80
2021/07/03 07:59:59;;;;;;;3.13;1.60;;;;;;;31.39;33.52;98349.09;5076806;28;20083;-81
2021/07/03 08:02:27;;;;;;;3.05;1.40;;;;;;;31.91;32.21;98333.94;5080883;28;20048;-81
2021/07/03 08:04:52;;;;;;;21.33;1.70;;;;;;;32.34;31.32;98342.44;5043794;28;20417;-80
2021/07/03 08:07:18;;;;;;;1.60;1.38;;;;;;;32.25;31.18;98349.72;5056270;28;20139;-81
2021/07/03 08:09:44;;;;;;;5.97;1.40;;;;;;;31.86;32.12;98350.56;5074670;28;20454;-81
2021/07/03 08:12:12;;;;;;;11.73;1.80;;;;;;;31.09;33.45;98348.06;5093288;28;20143;-81
2021/07/03 08:14:38;;;;;;;5.68;1.55;;;;;;;31.24;33.13;98340.84;5076510;28;20040;-82
2021/07/03 08:17:04;;;;;;;4.18;1.70;;;;;;;31.50;32.42;98345.19;5077004;28;20461;-81
2021/07/03 08:19:30;;;;;;;3.13;1.45;;;;;;;31.74;31.92;98344.50;5093737;28;20105;-82
2021/07/03 08:22:02;;;;;;;8.18;1.40;;;;;;;31.91;31.73;98339.44;5056307;28;20486;-81
2021/07/03 08:24:28;;;;;;;2.08;1.30;;;;;;;32.46;31.18;98334.66;5025367;28;20047;-79
2021/07/03 08:26:55;;;;;;;2.85;1.60;;;;;;;32.57;30.94;98338.97;5039259;28;20094;-82
2021/07/03 08:29:22;;;;;;;4.30;1.40;;;;;;;32.43;30.77;98334.41;5039460;28;20530;-81
2021/07/03 08:31:48;;;;;;;2.45;1.50;;;;;;;32.05;31.22;98326.66;5023771;28;20047;-81
2021/07/03 08:34:14;;;;;;;1.50;1.40;;;;;;;31.37;32.32;98348.56;5023105;28;20085;-81
2021/07/03 08:36:40;;;;;;;3.83;1.73;;;;;;;31.13;32.92;98337.28;5039858;28;20048;-81
2021/07/03 08:39:06;;;;;;;5.07;1.20;;;;;;;30.90;33.21;98338.72;5023744;28;20052;-84
2021/07/03 08:41:33;;;;;;;1.42;1.30;;;;;;;31.00;32.38;98322.16;5023335;28;20047;-85
2021/07/03 08:44:00;;;;;;;4.72;1.88;;;;;;;31.34;33.09;98336.13;5076666;28;20131;-89
2021/07/03 08:46:26;;;;;;;1.63;1.33;;;;;;;31.98;31.52;98333.63;5076097;28;20067;-85
2021/07/03 08:48:54;;;;;;;1.30;1.20;;;;;;;32.21;30.46;98334.81;5058850;28;20047;-84
2021/07/03 08:51:22;;;;;;;2.08;1.63;;;;;;;32.16;32.34;98330.16;5043473;28;20048;-93
2021/07/03 08:53:51;;;;;;;3.42;1.70;;;;;;;32.08;32.19;98331.59;5060106;28;20040;-83
2021/07/03 08:56:18;;;;;;;1.60;1.30;;;;;;;32.42;31.12;98324.44;5094573;28;20473;-88
2021/07/03 08:58:46;;;;;;;6.03;1.60;;;;;;;33.02;30.63;98325.78;5044800;28;20450;-89
2021/07/03 09:01:12;;;;;;;4.38;1.40;;;;;;;33.50;29.83;98320.25;5093614;28;20410;-86
2021/07/03 09:03:38;;;;;;;3.70;1.30;;;;;;;33.56;28.67;98319.06;5093980;28;20047;-86
2021/07/03 09:06:05;;;;;;;4.88;1.20;;;;;;;33.95;28.09;98325.44;5092084;28;20123;-83
2021/07/03 09:08:32;;;;;;;2.08;1.10;;;;;;;33.62;28.08;98318.97;5093307;28;20040;-87
2021/07/03 09:11:04;;;;;;;4.78;1.00;;;;;;;33.65;28.30;98313.66;5094039;28;20047;-84
2021/07/03 09:13:31;;;;;;;3.67;1.38;;;;;;;33.99;27.91;98310.69;5076201;28;20083;-86
2021/07/03 09:15:56;;;;;;;1.38;1.13;;;;;;;33.90;26.78;98315.25;5074974;28;20044;-83
2021/07/03 09:18:25;;;;;;;2.28;1.10;;;;;;;33.89;27.46;98310.84;5092999;28;20506;-82
2021/07/03 09:20:52;;;;;;;9.57;1.42;;;;;;;34.12;26.86;98297.22;5093249;28;20043;-85
2021/07/03 09:23:20;;;;;;;3.50;1.23;;;;;;;34.10;27.06;98311.34;5058940;28;20032;-83
2021/07/03 09:25:55;;;;;;;1.77;1.08;;;;;;;33.93;27.70;98314.66;5087942;28;20486;-88
2021/07/03 09:28:22;;;;;;;2.35;1.30;;;;;;;33.68;27.44;98298.41;5055992;28;20423;-95
2021/07/03 09:30:54;;;;;;;5.05;1.27;;;;;;;33.85;26.45;98309.75;5072593;28;20414;-90
2021/07/03 09:33:25;;;;;;;1.15;1.00;;;;;;;34.11;27.08;98295.53;5027536;28;20040;-89
2021/07/03 09:35:57;;;;;;;1.65;0.98;;;;;;;34.74;25.77;98301.38;5088852;28;20048;-90
2021/07/03 09:38:42;;;;;;;4.05;1.30;;;;;;;34.46;26.21;98297.72;5081448;28;20040;-89
2021/07/03 09:41:15;;;;;;;1.30;1.20;;;;;;;34.47;26.60;98307.69;5075321;28;20104;-87
2021/07/03 09:44:07;;;;;;;5.00;1.42;;;;;;;35.15;25.63;98300.63;5054880;28;20037;-85
2021/07/03 09:46:34;;;;;;;4.13;1.10;;;;;;;34.88;26.50;98290.31;5070992;28;20147;-84
2021/07/03 09:49:37;;;;;;;3.53;1.20;;;;;;;35.81;25.77;98298.38;5071151;28;20052;-86
2021/07/03 09:52:03;;;;;;;1.80;1.20;;;;;;;35.88;25.87;98307.09;5064514;28;20059;-86
2021/07/03 09:54:30;;;;;;;2.28;1.25;;;;;;;36.10;25.21;98299.94;5055944;28;20048;-86
2021/07/03 09:57:00;;;;;;;2.63;1.27;;;;;;;36.12;24.94;98290.16;5072888;28;20418;-87
2021/07/03 09:59:29;;;;;;;1.67;1.10;;;;;;;36.05;25.21;98302.84;5057052;28;20151;-86
2021/07/03 10:01:55;;;;;;;7.53;1.50;;;;;;;36.41;25.22;98300.81;5072635;28;20495;-88
2021/07/03 10:04:21;;;;;;;5.00;1.30;;;;;;;36.28;25.21;98298.94;5054727;28;20044;-87
2021/07/03 10:06:49;;;;;;;1.85;1.10;;;;;;;36.45;24.32;98312.16;5073570;28;20096;-90
2021/07/03 10:09:23;;;;;;;;;;;;;;;36.27;24.19;98304.81;5080732;28;20108;-90
2021/07/03 10:11:50;;;;;;;3.55;1.33;;;;;;;36.50;24.33;98308.44;5063780;28;19923;-92
2021/07/03 10:14:16;;;;;;;6.67;1.40;;;;;;;36.17;24.93;98284.44;5045600;28;20052;-91
2021/07/03 10:16:42;;;;;;;9.55;1.30;;;;;;;36.33;24.94;98301.56;5076400;28;20055;-90
2021/07/03 10:19:13;;;;;;;2.58;1.40;;;;;;;36.76;24.81;98300.22;5038961;28;20613;-89
2021/07/03 10:21:43;;;;;;;1.67;1.30;;;;;;;36.92;24.40;98298.66;5075766;28;20451;-88
2021/07/03 10:24:20;;;;;;;3.10;1.17;;;;;;;37.31;24.90;98302.56;5057830;28;20040;-89
2021/07/03 10:26:46;;;;;;;2.55;1.35;;;;;;;37.05;24.25;98305.28;5039966;28;20044;-87
2021/07/03 10:29:21;;;;;;;3.08;1.40;;;;;;;36.15;25.05;98302.63;5059691;28;20048;-89
2021/07/03 10:31:48;;;;;;;6.38;1.40;;;;;;;35.82;25.28;98311.13;5044328;28;20048;-88
2021/07/03 10:34:14;;;;;;;1.73;1.13;;;;;;;35.68;25.46;98310.34;5055522;28;20053;-92
2021/07/03 10:36:40;;;;;;;3.92;1.23;;;;;;;34.78;26.42;98304.38;5079280;28;20036;-92
2021/07/03 10:39:06;;;;;;;2.67;1.42;;;;;;;34.45;27.09;98307.16;5077424;28;20545;-93
2021/07/03 10:41:33;;;;;;;1.70;1.30;;;;;;;34.45;27.66;98298.00;5075946;28;20238;-89
2021/07/03 10:44:04;;;;;;;3.25;1.30;;;;;;;34.32;27.74;98297.66;5072928;28;20056;-84
2021/07/03 10:46:39;;;;;;;6.72;1.60;;;;;;;33.54;28.48;98303.84;5038299;28;20518;-88
2021/07/03 10:49:09;;;;;;;6.43;1.60;;;;;;;33.44;28.98;98320.56;5055973;28;20041;-86
2021/07/03 10:51:42;;;;;;;6.00;1.38;;;;;;;34.00;28.15;98317.91;5075185;28;20044;-86
2021/07/03 10:54:25;;;;;;;14.73;2.25;;;;;;;34.10;28.08;98302.22;5078575;28;20048;-88
2021/07/03 10:57:00;;;;;;;7.07;1.58;;;;;;;34.08;28.38;98300.56;5062197;28;20044;-90
2021/07/03 10:59:28;;;;;;;1.35;1.27;;;;;;;34.01;28.28;98302.91;5077050;28;20136;-85
2021/07/03 11:02:28;;;;;;;1.80;1.30;;;;;;;34.29;28.15;98303.81;5040823;28;20522;-87
2021/07/03 11:04:54;;;;;;;3.15;1.50;;;;;;;34.15;27.90;98296.56;5052767;28;20056;-91
2021/07/03 11:07:25;;;;;;;4.95;1.33;;;;;;;33.96;27.99;98291.84;5059768;28;20040;-90
2021/07/03 11:09:51;;;;;;;2.60;1.40;;;;;;;34.35;27.74;98289.88;5049334;28;20490;-91
2021/07/03 11:12:21;;;;;;;1.58;1.30;;;;;;;34.65;27.41;98288.53;5040313;28;20043;-90
2021/07/03 11:14:51;;;;;;;2.72;1.38;;;;;;;35.87;26.28;98285.16;5095116;28;20047;-90
2021/07/03 11:17:17;;;;;;;1.75;1.48;;;;;;;36.93;25.74;98287.19;5074802;28;20503;-88
2021/07/03 11:19:46;;;;;;;1.75;1.30;;;;;;;37.52;24.18;98283.31;5083393;28;20052;-89
2021/07/03 11:22:12;;;;;;;3.83;1.40;;;;;;;37.12;24.39;98286.13;5078920;28;20126;-88
2021/07/03 11:24:46;;;;;;;7.38;2.05;;;;;;;36.62;24.55;98283.59;5079111;28;20048;-90
2021/07/03 11:27:36;;;;;;;4.82;1.40;;;;;;;35.48;25.85;98286.59;5043344;28;20051;-88
2021/07/03 11:30:17;;;;;;;7.15;1.20;;;;;;;35.10;26.33;98286.03;5022278;28;20045;-90
2021/07/03 11:33:02;;;;;;;3.05;1.20;;;;;;;34.73;26.85;98279.50;5027722;28;20056;-91
2021/07/03 11:35:28;;;;;;;1.40;1.30;;;;;;;34.71;26.98;98276.19;5059606;28;20052;-91
2021/07/03 11:37:54;;;;;;;5.20;1.40;;;;;;;34.20;27.45;98272.38;5060169;28;20052;-90